createdAt,value
2023-03-27T00:01:21.948Z,4.43
2023-03-27T00:03:50.105Z,4.38
2023-03-27T00:06:18.084Z,4.36
2023-03-27T00:08:46.661Z,4.32
2023-03-27T00:11:14.444Z,4.29
2023-03-27T00:13:49.302Z,4.25
2023-03-27T00:16:19.586Z,4.23
2023-03-27T00:18:46.805Z,4.19
2023-03-27T00:21:13.368Z,4.16
2023-03-27T00:23:40.372Z,4.13
2023-03-27T00:26:06.977Z,4.09
2023-03-27T00:28:34.101Z,4.09
2023-03-27T00:31:00.743Z,4.04
2023-03-27T00:33:27.615Z,4.02
2023-03-27T00:35:54.140Z,3.99
2023-03-27T00:38:21.389Z,3.96
2023-03-27T00:40:49.242Z,3.93
2023-03-27T00:43:28.299Z,3.92
2023-03-27T00:46:01.359Z,3.90
2023-03-27T00:48:31.503Z,3.88
2023-03-27T00:50:58.881Z,3.85
2023-03-27T00:53:28.577Z,3.84
2023-03-27T00:55:59.014Z,3.80
2023-03-27T00:58:44.862Z,3.78
2023-03-27T01:01:14.745Z,3.78
2023-03-27T01:03:43.237Z,3.73
2023-03-27T01:06:11.174Z,3.72
2023-03-27T01:08:37.987Z,3.69
2023-03-27T01:11:31.363Z,3.66
2023-03-27T01:14:19.479Z,3.64
2023-03-27T01:17:22.860Z,3.60
2023-03-27T01:20:27.279Z,3.56
2023-03-27T01:23:06.987Z,3.52
2023-03-27T01:25:45.341Z,3.48
2023-03-27T01:28:30.541Z,3.44
2023-03-27T01:31:24.347Z,3.42
2023-03-27T01:34:13.721Z,3.39
2023-03-27T01:36:45.962Z,3.36
2023-03-27T01:39:42.407Z,3.33
2023-03-27T01:42:18.374Z,3.33
2023-03-27T01:44:57.072Z,3.29
2023-03-27T01:47:32.457Z,3.26
2023-03-27T01:50:08.282Z,3.22
2023-03-27T01:52:38.727Z,3.18
2023-03-27T01:55:11.635Z,3.16
2023-03-27T01:57:50.134Z,3.12
2023-03-27T02:00:22.660Z,3.10
2023-03-27T02:03:09.502Z,3.04
2023-03-27T02:05:40.445Z,3.01
2023-03-27T02:08:16.608Z,2.98
2023-03-27T02:10:48.069Z,2.93
2023-03-27T02:13:22.506Z,2.90
2023-03-27T02:15:51.385Z,2.87
2023-03-27T02:18:28.448Z,2.84
2023-03-27T02:20:55.341Z,2.82
2023-03-27T02:23:22.952Z,2.81
2023-03-27T02:25:50.328Z,2.79
2023-03-27T02:28:29.861Z,2.77
2023-03-27T02:31:34.015Z,2.77
2023-03-27T02:34:29.053Z,2.75
2023-03-27T02:37:21.430Z,2.76
2023-03-27T02:40:01.070Z,2.74
2023-03-27T02:42:41.422Z,2.73
2023-03-27T02:45:10.859Z,2.72
2023-03-27T02:47:42.362Z,2.71
2023-03-27T02:50:19.277Z,2.69
2023-03-27T02:52:51.383Z,2.69
2023-03-27T02:55:22.310Z,2.68
2023-03-27T02:57:53.725Z,2.70
2023-03-27T03:00:28.169Z,2.72
2023-03-27T03:03:08.387Z,2.75
2023-03-27T03:05:37.113Z,2.77
2023-03-27T03:08:05.311Z,2.80
2023-03-27T03:10:33.285Z,2.81
2023-03-27T03:13:00.411Z,2.81
2023-03-27T03:15:27.064Z,2.80
2023-03-27T03:17:53.745Z,2.80
2023-03-27T03:20:21.492Z,2.79
2023-03-27T03:22:47.874Z,2.78
2023-03-27T03:25:14.616Z,2.77
2023-03-27T03:27:41.359Z,2.76
2023-03-27T03:30:09.675Z,2.75
2023-03-27T03:32:36.399Z,2.74
2023-03-27T03:35:03.051Z,2.73
2023-03-27T03:37:29.464Z,2.73
2023-03-27T03:39:55.968Z,2.69
2023-03-27T03:42:24.035Z,2.68
2023-03-27T03:44:51.025Z,2.66
2023-03-27T03:47:17.530Z,2.62
2023-03-27T03:49:43.963Z,2.59
2023-03-27T03:52:10.437Z,2.57
2023-03-27T03:54:38.600Z,2.55
2023-03-27T03:57:05.294Z,2.53
2023-03-27T03:59:32.058Z,2.50
2023-03-27T04:01:58.441Z,2.48
2023-03-27T04:04:25.251Z,2.46
2023-03-27T04:06:52.921Z,2.45
2023-03-27T04:09:19.335Z,2.43
2023-03-27T04:11:46.925Z,2.42
2023-03-27T04:14:13.453Z,2.41
2023-03-27T04:16:39.822Z,2.40
2023-03-27T04:19:07.133Z,2.38
2023-03-27T04:21:33.476Z,2.37
2023-03-27T04:24:02.792Z,2.37
2023-03-27T04:26:29.848Z,2.35
2023-03-27T04:28:56.331Z,2.35
2023-03-27T04:31:22.749Z,2.33
2023-03-27T04:33:52.181Z,2.32
2023-03-27T04:36:19.401Z,2.31
2023-03-27T04:38:47.813Z,2.29
2023-03-27T04:41:14.239Z,2.28
2023-03-27T04:43:41.525Z,2.26
2023-03-27T04:46:08.351Z,2.26
2023-03-27T04:48:39.018Z,2.25
2023-03-27T04:51:06.637Z,2.28
2023-03-27T04:53:35.858Z,2.30
2023-03-27T04:56:02.275Z,2.33
2023-03-27T04:58:28.704Z,2.36
2023-03-27T05:00:56.460Z,2.37
2023-03-27T05:03:24.009Z,2.38
2023-03-27T05:05:50.585Z,2.38
2023-03-27T05:08:17.589Z,2.38
2023-03-27T05:10:45.683Z,2.37
2023-03-27T05:13:12.700Z,2.35
2023-03-27T05:15:39.287Z,2.34
2023-03-27T05:18:07.256Z,2.33
2023-03-27T05:20:34.127Z,2.33
2023-03-27T05:23:00.635Z,2.32
2023-03-27T05:25:28.821Z,2.30
2023-03-27T05:27:55.536Z,2.29
2023-03-27T05:30:23.752Z,2.29
2023-03-27T05:32:52.325Z,2.29
2023-03-27T05:35:21.487Z,2.28
2023-03-27T05:37:50.300Z,2.26
2023-03-27T05:40:21.855Z,2.30
2023-03-27T05:42:49.829Z,2.30
2023-03-27T05:45:16.976Z,2.30
2023-03-27T05:47:46.139Z,2.31
2023-03-27T05:50:12.921Z,2.32
2023-03-27T05:52:39.255Z,2.32
2023-03-27T05:55:06.685Z,2.33
2023-03-27T05:57:33.050Z,2.35
2023-03-27T06:00:00.397Z,2.36
2023-03-27T06:02:27.699Z,2.37
2023-03-27T06:04:54.340Z,2.40
2023-03-27T06:07:20.803Z,2.44
2023-03-27T06:09:47.154Z,2.47
2023-03-27T06:12:13.574Z,2.52
2023-03-27T06:14:39.948Z,2.56
2023-03-27T06:17:06.445Z,2.60
2023-03-27T06:19:32.817Z,2.67
2023-03-27T06:21:59.236Z,2.72
2023-03-27T06:24:26.285Z,2.75
2023-03-27T06:26:52.952Z,2.81
2023-03-27T06:29:19.467Z,2.85
2023-03-27T06:31:45.920Z,2.90
2023-03-27T06:34:14.906Z,2.96
2023-03-27T06:36:41.520Z,3.02
2023-03-27T06:39:08.161Z,3.09
2023-03-27T06:41:34.610Z,3.18
2023-03-27T06:44:01.554Z,3.25
2023-03-27T06:46:42.753Z,3.35
2023-03-27T06:49:11.529Z,3.45
2023-03-27T06:51:38.057Z,3.55
2023-03-27T06:54:04.659Z,3.65
2023-03-27T06:56:31.340Z,3.72
2023-03-27T06:58:57.954Z,3.81
2023-03-27T07:01:24.389Z,3.86
2023-03-27T07:03:50.838Z,3.92
2023-03-27T07:06:19.307Z,3.96
2023-03-27T07:08:47.754Z,4.02
2023-03-27T07:11:15.664Z,4.05
2023-03-27T07:13:42.344Z,4.10
2023-03-27T07:16:12.368Z,4.15
2023-03-27T07:18:38.958Z,4.21
2023-03-27T07:21:07.618Z,4.27
2023-03-27T07:23:34.259Z,4.35
2023-03-27T07:26:01.834Z,4.47
2023-03-27T07:28:28.252Z,4.56
2023-03-27T07:30:54.885Z,4.65
2023-03-27T07:33:22.113Z,4.75
2023-03-27T07:35:48.761Z,4.85
2023-03-27T07:38:16.567Z,4.94
2023-03-27T07:40:46.023Z,5.03
2023-03-27T07:43:12.595Z,5.11
2023-03-27T07:45:39.725Z,5.18
2023-03-27T07:48:16.244Z,5.26
2023-03-27T07:50:43.510Z,5.34
2023-03-27T07:53:10.034Z,5.43
2023-03-27T07:55:59.110Z,5.53
2023-03-27T07:58:25.630Z,5.63
2023-03-27T08:00:52.593Z,5.74
2023-03-27T08:03:20.519Z,5.82
2023-03-27T08:05:55.937Z,5.91
2023-03-27T08:08:23.192Z,5.99
2023-03-27T08:10:50.704Z,6.06
2023-03-27T08:13:17.561Z,6.13
2023-03-27T08:15:43.964Z,6.22
2023-03-27T08:18:11.544Z,6.29
2023-03-27T08:20:38.488Z,6.36
2023-03-27T08:23:05.003Z,6.42
2023-03-27T08:25:34.788Z,6.47
2023-03-27T08:28:02.816Z,6.52
2023-03-27T08:30:30.075Z,6.58
2023-03-27T08:32:56.900Z,6.64
2023-03-27T08:35:23.541Z,6.70
2023-03-27T08:37:50.058Z,6.77
2023-03-27T08:40:26.203Z,6.88
2023-03-27T08:42:57.117Z,6.97
2023-03-27T08:45:32.151Z,7.07
2023-03-27T08:48:11.128Z,7.16
2023-03-27T08:50:45.544Z,7.25
2023-03-27T08:53:50.583Z,7.36
2023-03-27T08:56:20.624Z,7.45
2023-03-27T08:58:47.268Z,7.55
2023-03-27T09:01:22.137Z,7.66
2023-03-27T09:04:03.711Z,7.77
2023-03-27T09:06:39.656Z,7.86
2023-03-27T09:09:31.039Z,7.97
2023-03-27T09:12:11.013Z,8.02
2023-03-27T09:14:43.389Z,8.10
2023-03-27T09:17:16.968Z,8.20
2023-03-27T09:19:49.471Z,8.26
2023-03-27T09:22:22.975Z,8.34
2023-03-27T09:24:54.210Z,8.41
2023-03-27T09:27:24.853Z,8.45
2023-03-27T09:30:19.940Z,8.49
2023-03-27T09:32:51.006Z,8.54
2023-03-27T09:35:20.313Z,8.56
2023-03-27T09:37:50.797Z,8.59
2023-03-27T09:40:45.196Z,8.63
2023-03-27T09:43:18.400Z,8.71
2023-03-27T09:45:48.918Z,8.82
2023-03-27T09:48:34.633Z,8.92
2023-03-27T09:51:02.397Z,9.01
2023-03-27T09:53:28.808Z,9.08
2023-03-27T09:56:12.770Z,9.14
2023-03-27T09:58:48.988Z,9.18
2023-03-27T10:01:19.857Z,9.21
2023-03-27T10:03:48.777Z,9.26
2023-03-27T10:06:26.186Z,9.33
2023-03-27T10:08:53.592Z,9.38
2023-03-27T10:11:25.600Z,9.46
2023-03-27T10:13:53.274Z,9.53
2023-03-27T10:16:22.364Z,9.62
2023-03-27T10:18:52.253Z,9.70
2023-03-27T10:21:23.396Z,9.79
2023-03-27T10:23:50.368Z,9.85
2023-03-27T10:26:20.986Z,9.91
2023-03-27T10:28:54.046Z,9.92
2023-03-27T10:31:37.576Z,9.91
2023-03-27T10:34:06.908Z,9.85
2023-03-27T10:36:38.557Z,9.74
2023-03-27T10:39:13.872Z,9.57
2023-03-27T10:41:41.056Z,9.37
2023-03-27T10:44:17.700Z,9.15
2023-03-27T10:46:45.084Z,8.93
2023-03-27T10:49:21.770Z,8.73
2023-03-27T10:51:57.656Z,8.61
2023-03-27T10:54:26.792Z,8.57
2023-03-27T10:57:02.583Z,8.56
2023-03-27T10:59:41.832Z,8.60
2023-03-27T11:02:19.708Z,8.65
2023-03-27T11:04:53.598Z,8.73
2023-03-27T11:07:46.548Z,8.82
2023-03-27T11:10:19.463Z,8.92
2023-03-27T11:12:55.532Z,9.01
2023-03-27T11:15:51.353Z,9.11
2023-03-27T11:18:29.646Z,9.21
2023-03-27T11:21:12.803Z,9.28
2023-03-27T11:23:46.860Z,9.35
2023-03-27T11:26:16.196Z,9.38
2023-03-27T11:28:48.664Z,9.43
2023-03-27T11:31:46.277Z,9.47
2023-03-27T11:34:28.931Z,9.50
2023-03-27T11:37:21.465Z,9.56
2023-03-27T11:39:53.966Z,9.63
2023-03-27T11:42:27.479Z,9.72
2023-03-27T11:44:55.026Z,9.80
2023-03-27T11:47:43.304Z,9.92
2023-03-27T11:50:36.007Z,9.99
2023-03-27T11:53:30.394Z,10.06
2023-03-27T11:56:11.989Z,10.12
2023-03-27T11:59:24.323Z,10.19
2023-03-27T12:02:21.405Z,10.21
2023-03-27T12:04:59.985Z,10.20
2023-03-27T12:07:47.904Z,10.14
2023-03-27T12:10:29.126Z,10.10
2023-03-27T12:13:41.319Z,10.07
2023-03-27T12:16:11.843Z,10.05
2023-03-27T12:18:51.163Z,10.05
2023-03-27T12:21:33.260Z,10.09
2023-03-27T12:24:30.030Z,10.16
2023-03-27T12:27:23.273Z,10.28
2023-03-27T12:30:13.482Z,10.45
2023-03-27T12:33:01.675Z,10.58
2023-03-27T12:35:36.471Z,10.67
2023-03-27T12:38:08.320Z,10.68
2023-03-27T12:40:48.358Z,10.61
2023-03-27T12:43:17.894Z,10.43
2023-03-27T12:46:07.471Z,10.17
2023-03-27T12:48:46.273Z,9.86
2023-03-27T12:51:19.774Z,9.57
2023-03-27T12:53:54.401Z,9.29
2023-03-27T12:56:25.266Z,9.02
2023-03-27T12:58:54.726Z,8.77
2023-03-27T13:01:49.150Z,8.56
2023-03-27T13:04:51.948Z,8.33
2023-03-27T13:07:43.368Z,8.14
2023-03-27T13:10:26.587Z,8.00
2023-03-27T13:13:33.638Z,7.89
2023-03-27T13:16:16.177Z,7.83
2023-03-27T13:19:12.820Z,7.82
2023-03-27T13:22:06.888Z,7.89
2023-03-27T13:25:03.251Z,8.00
2023-03-27T13:27:38.997Z,8.15
2023-03-27T13:30:05.735Z,8.33
2023-03-27T13:32:37.320Z,8.53
2023-03-27T13:35:19.205Z,8.74
2023-03-27T13:37:48.606Z,8.87
2023-03-27T13:40:39.581Z,8.95
2023-03-27T13:43:30.910Z,8.98
2023-03-27T13:46:05.007Z,8.94
2023-03-27T13:48:56.362Z,8.90
2023-03-27T13:51:22.682Z,8.85
2023-03-27T13:54:24.623Z,8.84
2023-03-27T13:57:22.087Z,8.84
2023-03-27T14:00:19.778Z,8.85
2023-03-27T14:03:05.198Z,8.85
2023-03-27T14:06:03.218Z,8.81
2023-03-27T14:08:45.628Z,8.75
2023-03-27T14:11:49.021Z,8.72
2023-03-27T14:14:37.207Z,8.70
2023-03-27T14:17:38.878Z,8.72
2023-03-27T14:20:23.784Z,8.76
2023-03-27T14:23:16.478Z,8.89
2023-03-27T14:25:49.229Z,9.06
2023-03-27T14:28:46.708Z,9.22
2023-03-27T14:31:19.172Z,9.32
2023-03-27T14:33:50.408Z,9.38
2023-03-27T14:36:17.053Z,9.33
2023-03-27T14:38:43.604Z,9.17
2023-03-27T14:41:26.725Z,8.89
2023-03-27T14:43:54.091Z,8.55
2023-03-27T14:46:22.832Z,8.23
2023-03-27T14:48:55.885Z,7.99
2023-03-27T14:51:36.967Z,7.77
2023-03-27T14:54:18.835Z,7.63
2023-03-27T14:56:47.729Z,7.51
2023-03-27T14:59:24.197Z,7.43
2023-03-27T15:01:52.374Z,7.37
2023-03-27T15:04:19.455Z,7.34
2023-03-27T15:06:46.064Z,7.32
2023-03-27T15:09:15.596Z,7.33
2023-03-27T15:11:48.251Z,7.34
2023-03-27T15:14:18.456Z,7.36
2023-03-27T15:16:52.751Z,7.41
2023-03-27T15:19:27.120Z,7.47
2023-03-27T15:22:02.645Z,7.55
2023-03-27T15:24:43.096Z,7.66
2023-03-27T15:27:27.482Z,7.74
2023-03-27T15:30:02.704Z,7.80
2023-03-27T15:32:42.598Z,7.84
2023-03-27T15:35:15.703Z,7.86
2023-03-27T15:37:42.930Z,7.88
2023-03-27T15:40:10.856Z,7.87
2023-03-27T15:42:46.500Z,7.90
2023-03-27T15:45:16.670Z,7.90
2023-03-27T15:47:43.499Z,7.90
2023-03-27T15:50:20.046Z,7.91
2023-03-27T15:52:51.401Z,7.91
2023-03-27T15:55:55.328Z,7.90
2023-03-27T15:58:28.308Z,7.90
2023-03-27T16:01:00.664Z,7.93
2023-03-27T16:03:30.590Z,7.95
2023-03-27T16:05:58.610Z,7.99
2023-03-27T16:08:28.853Z,8.06
2023-03-27T16:10:55.753Z,8.11
2023-03-27T16:13:33.235Z,8.14
2023-03-27T16:16:04.210Z,8.09
2023-03-27T16:18:40.056Z,7.94
2023-03-27T16:21:07.918Z,7.70
2023-03-27T16:23:34.429Z,7.41
2023-03-27T16:26:02.316Z,7.13
2023-03-27T16:28:29.940Z,6.93
2023-03-27T16:30:57.995Z,6.76
2023-03-27T16:33:27.456Z,6.63
2023-03-27T16:35:55.581Z,6.51
2023-03-27T16:38:22.029Z,6.47
2023-03-27T16:40:49.609Z,6.46
2023-03-27T16:43:16.560Z,6.48
2023-03-27T16:45:43.214Z,6.52
2023-03-27T16:48:10.592Z,6.56
2023-03-27T16:50:37.120Z,6.62
2023-03-27T16:53:03.743Z,6.68
2023-03-27T16:55:30.533Z,6.73
2023-03-27T16:57:57.018Z,6.80
2023-03-27T17:00:23.753Z,6.88
2023-03-27T17:02:50.323Z,6.94
2023-03-27T17:05:16.848Z,7.00
2023-03-27T17:07:44.803Z,7.08
2023-03-27T17:10:11.276Z,7.13
2023-03-27T17:12:38.166Z,7.18
2023-03-27T17:15:05.116Z,7.20
2023-03-27T17:17:31.941Z,7.24
2023-03-27T17:19:58.585Z,7.24
2023-03-27T17:22:26.470Z,7.23
2023-03-27T17:24:56.996Z,7.23
2023-03-27T17:27:25.695Z,7.19
2023-03-27T17:29:52.125Z,7.15
2023-03-27T17:32:18.546Z,7.11
2023-03-27T17:34:44.980Z,7.06
2023-03-27T17:37:12.468Z,7.00
2023-03-27T17:39:39.403Z,6.94
2023-03-27T17:42:06.574Z,6.88
2023-03-27T17:44:32.988Z,6.83
2023-03-27T17:47:00.260Z,6.77
2023-03-27T17:49:27.791Z,6.74
2023-03-27T17:51:54.136Z,6.70
2023-03-27T17:54:20.569Z,6.67
2023-03-27T17:56:46.988Z,6.64
2023-03-27T17:59:13.403Z,6.60
2023-03-27T18:01:39.906Z,6.57
2023-03-27T18:04:06.727Z,6.52
2023-03-27T18:06:33.258Z,6.50
2023-03-27T18:08:59.758Z,6.48
2023-03-27T18:11:26.605Z,6.45
2023-03-27T18:13:53.208Z,6.44
2023-03-27T18:16:21.893Z,6.42
2023-03-27T18:18:48.890Z,6.41
2023-03-27T18:21:16.453Z,6.41
2023-03-27T18:23:46.470Z,6.40
2023-03-27T18:26:13.544Z,6.36
2023-03-27T18:28:39.934Z,6.33
2023-03-27T18:31:08.916Z,6.31
2023-03-27T18:33:36.413Z,6.26
2023-03-27T18:36:04.474Z,6.23
2023-03-27T18:38:31.007Z,6.18
2023-03-27T18:40:57.774Z,6.12
2023-03-27T18:43:24.376Z,6.09
2023-03-27T18:45:58.501Z,6.05
2023-03-27T18:48:26.225Z,6.00
2023-03-27T18:51:01.006Z,5.97
2023-03-27T18:53:28.244Z,5.94
2023-03-27T18:55:55.418Z,5.89
2023-03-27T18:58:26.654Z,5.87
2023-03-27T19:00:53.733Z,5.82
2023-03-27T19:03:23.436Z,5.79
2023-03-27T19:05:51.696Z,5.75
2023-03-27T19:08:23.965Z,5.71
2023-03-27T19:10:50.316Z,5.67
2023-03-27T19:13:16.922Z,5.65
2023-03-27T19:15:43.617Z,5.62
2023-03-27T19:18:10.241Z,5.58
2023-03-27T19:20:36.625Z,5.56
2023-03-27T19:23:03.453Z,5.53
2023-03-27T19:25:29.942Z,5.50
2023-03-27T19:27:56.366Z,5.48
2023-03-27T19:30:23.061Z,5.45
2023-03-27T19:32:50.490Z,5.42
2023-03-27T19:35:17.246Z,5.40
2023-03-27T19:37:43.618Z,5.36
2023-03-27T19:40:10.496Z,5.33
2023-03-27T19:42:36.939Z,5.28
2023-03-27T19:45:03.504Z,5.24
2023-03-27T19:47:29.964Z,5.22
2023-03-27T19:49:56.487Z,5.17
2023-03-27T19:52:23.061Z,5.14
2023-03-27T19:54:49.844Z,5.11
2023-03-27T19:57:16.330Z,5.09
2023-03-27T19:59:42.751Z,5.04
2023-03-27T20:02:14.282Z,5.03
2023-03-27T20:04:40.798Z,4.99
2023-03-27T20:07:07.594Z,4.97
2023-03-27T20:09:34.566Z,4.94
2023-03-27T20:12:01.306Z,4.93
2023-03-27T20:14:27.675Z,4.91
2023-03-27T20:16:54.428Z,4.90
2023-03-27T20:19:22.028Z,4.90
2023-03-27T20:21:48.592Z,4.88
2023-03-27T20:24:17.338Z,4.87
2023-03-27T20:26:48.083Z,4.86
2023-03-27T20:29:18.404Z,4.85
2023-03-27T20:31:46.660Z,4.82
2023-03-27T20:34:13.192Z,4.81
2023-03-27T20:36:43.328Z,4.79
2023-03-27T20:39:14.155Z,4.78
2023-03-27T20:41:40.713Z,4.76
2023-03-27T20:44:14.901Z,4.74
2023-03-27T20:46:46.954Z,4.74
2023-03-27T20:49:37.657Z,4.73
2023-03-27T20:52:07.328Z,4.74
2023-03-27T20:54:34.005Z,4.76
2023-03-27T20:57:01.435Z,4.78
2023-03-27T20:59:28.205Z,4.84
2023-03-27T21:01:54.605Z,4.87
2023-03-27T21:04:21.515Z,4.92
2023-03-27T21:06:47.914Z,4.96
2023-03-27T21:09:14.249Z,5.01
2023-03-27T21:11:41.021Z,5.05
2023-03-27T21:14:07.809Z,5.11
2023-03-27T21:16:34.273Z,5.14
2023-03-27T21:19:00.721Z,5.19
2023-03-27T21:21:27.432Z,5.23
2023-03-27T21:23:54.136Z,5.25
2023-03-27T21:26:20.717Z,5.27
2023-03-27T21:28:47.087Z,5.28
2023-03-27T21:31:13.778Z,5.29
2023-03-27T21:33:40.162Z,5.31
2023-03-27T21:36:07.131Z,5.33
2023-03-27T21:38:33.646Z,5.35
2023-03-27T21:41:02.025Z,5.36
2023-03-27T21:43:28.754Z,5.34
2023-03-27T21:45:55.497Z,5.33
2023-03-27T21:48:21.867Z,5.31
2023-03-27T21:50:48.269Z,5.27
2023-03-27T21:53:16.775Z,5.22
2023-03-27T21:55:43.151Z,5.18
2023-03-27T21:58:09.563Z,5.13
2023-03-27T22:00:36.065Z,5.07
2023-03-27T22:03:02.819Z,5.02
2023-03-27T22:05:29.416Z,4.96
2023-03-27T22:07:57.519Z,4.91
2023-03-27T22:10:23.859Z,4.86
2023-03-27T22:12:50.288Z,4.80
2023-03-27T22:15:16.796Z,4.74
2023-03-27T22:17:43.343Z,4.69
2023-03-27T22:20:10.196Z,4.65
2023-03-27T22:22:37.110Z,4.58
2023-03-27T22:25:04.194Z,4.55
2023-03-27T22:27:31.132Z,4.50
2023-03-27T22:29:57.624Z,4.46
2023-03-27T22:32:24.056Z,4.41
2023-03-27T22:34:51.612Z,4.39
2023-03-27T22:37:20.039Z,4.36
2023-03-27T22:39:47.153Z,4.35
2023-03-27T22:42:13.506Z,4.35
2023-03-27T22:44:39.912Z,4.34
2023-03-27T22:47:06.288Z,4.35
2023-03-27T22:49:32.676Z,4.35
2023-03-27T22:51:59.184Z,4.38
2023-03-27T22:54:25.735Z,4.38
2023-03-27T22:56:54.994Z,4.43
2023-03-27T22:59:21.462Z,4.46
2023-03-27T23:01:48.031Z,4.49
2023-03-27T23:04:14.476Z,4.53
2023-03-27T23:06:41.020Z,4.56
2023-03-27T23:09:09.142Z,4.62
2023-03-27T23:11:35.476Z,4.66
2023-03-27T23:14:01.824Z,4.70
2023-03-27T23:16:28.293Z,4.72
2023-03-27T23:18:54.639Z,4.77
2023-03-27T23:21:21.152Z,4.79
2023-03-27T23:23:47.568Z,4.82
2023-03-27T23:26:14.061Z,4.83
2023-03-27T23:28:41.877Z,4.84
2023-03-27T23:31:15.570Z,4.84
2023-03-27T23:33:44.793Z,4.84
2023-03-27T23:36:12.756Z,4.81
2023-03-27T23:38:40.275Z,4.80
2023-03-27T23:41:08.477Z,4.78
2023-03-27T23:43:35.726Z,4.76
2023-03-27T23:46:03.958Z,4.72
2023-03-27T23:48:31.110Z,4.69
2023-03-27T23:50:57.986Z,4.70
2023-03-27T23:53:26.139Z,4.67
2023-03-27T23:55:53.137Z,4.66
2023-03-27T23:58:19.929Z,4.67
